sensor_id;sensor_type;location;lat;lon;timestamp;P1;durP1;ratioP1;P2;durP2;ratioP2
55647;SDS011;45266;48.756;9.246;2022-07-25T00:00:22;11.68;;;9.73;;
55647;SDS011;45266;48.756;9.246;2022-07-25T00:01:24;12.73;;;9.32;;
55647;SDS011;45266;48.756;9.246;2022-07-25T00:02:30;11.13;;;10.15;;
55647;SDS011;45266;48.756;9.246;2022-07-25T00:03:32;9.95;;;9.13;;
55647;SDS011;45266;48.756;9.246;2022-07-25T00:04:34;11.45;;;10.35;;
55647;SDS011;45266;48.756;9.246;2022-07-25T00:05:36;10.50;;;9.60;;
55647;SDS011;45266;48.756;9.246;2022-07-25T00:06:38;10.93;;;9.85;;
55647;SDS011;45266;48.756;9.246;2022-07-25T00:07:41;10.70;;;9.80;;
55647;SDS011;45266;48.756;9.246;2022-07-25T00:08:43;10.27;;;9.32;;
55647;SDS011;45266;48.756;9.246;2022-07-25T00:09:45;12.65;;;9.80;;
55647;SDS011;45266;48.756;9.246;2022-07-25T00:10:47;10.43;;;9.52;;
55647;SDS011;45266;48.756;9.246;2022-07-25T00:11:49;10.40;;;9.48;;
55647;SDS011;45266;48.756;9.246;2022-07-25T00:12:51;11.43;;;10.32;;
55647;SDS011;45266;48.756;9.246;2022-07-25T00:13:52;10.65;;;9.55;;
55647;SDS011;45266;48.756;9.246;2022-07-25T00:14:54;10.98;;;9.93;;
55647;SDS011;45266;48.756;9.246;2022-07-25T00:15:56;10.90;;;9.95;;
55647;SDS011;45266;48.756;9.246;2022-07-25T00:16:58;10.95;;;9.95;;
55647;SDS011;45266;48.756;9.246;2022-07-25T00:18:00;11.23;;;10.07;;
55647;SDS011;45266;48.756;9.246;2022-07-25T00:19:02;10.82;;;9.70;;
55647;SDS011;45266;48.756;9.246;2022-07-25T00:20:04;10.85;;;9.68;;
55647;SDS011;45266;48.756;9.246;2022-07-25T00:21:06;10.48;;;9.48;;
55647;SDS011;45266;48.756;9.246;2022-07-25T00:22:08;11.07;;;9.98;;
55647;SDS011;45266;48.756;9.246;2022-07-25T00:23:10;10.00;;;9.15;;
55647;SDS011;45266;48.756;9.246;2022-07-25T00:24:12;10.07;;;9.10;;
55647;SDS011;45266;48.756;9.246;2022-07-25T00:25:14;11.48;;;10.30;;
55647;SDS011;45266;48.756;9.246;2022-07-25T00:26:16;10.48;;;9.48;;
55647;SDS011;45266;48.756;9.246;2022-07-25T00:27:19;11.07;;;9.73;;
55647;SDS011;45266;48.756;9.246;2022-07-25T00:28:20;11.00;;;10.00;;
55647;SDS011;45266;48.756;9.246;2022-07-25T00:29:22;10.80;;;9.65;;
55647;SDS011;45266;48.756;9.246;2022-07-25T00:30:24;10.65;;;9.57;;
55647;SDS011;45266;48.756;9.246;2022-07-25T00:31:26;11.50;;;10.40;;
55647;SDS011;45266;48.756;9.246;2022-07-25T00:32:29;11.35;;;10.35;;
55647;SDS011;45266;48.756;9.246;2022-07-25T00:33:31;11.95;;;10.55;;
55647;SDS011;45266;48.756;9.246;2022-07-25T00:34:33;11.57;;;10.35;;
55647;SDS011;45266;48.756;9.246;2022-07-25T00:35:35;11.43;;;10.40;;
55647;SDS011;45266;48.756;9.246;2022-07-25T00:36:37;11.10;;;10.10;;
55647;SDS011;45266;48.756;9.246;2022-07-25T00:37:39;10.57;;;9.68;;
55647;SDS011;45266;48.756;9.246;2022-07-25T00:38:41;10.75;;;9.63;;
55647;SDS011;45266;48.756;9.246;2022-07-25T00:39:43;12.30;;;11.00;;
55647;SDS011;45266;48.756;9.246;2022-07-25T00:40:44;11.43;;;10.15;;
55647;SDS011;45266;48.756;9.246;2022-07-25T00:41:54;11.25;;;10.10;;
55647;SDS011;45266;48.756;9.246;2022-07-25T00:42:56;10.57;;;9.48;;
55647;SDS011;45266;48.756;9.246;2022-07-25T00:43:58;11.00;;;10.00;;
55647;SDS011;45266;48.756;9.246;2022-07-25T00:45:00;11.57;;;10.48;;
55647;SDS011;45266;48.756;9.246;2022-07-25T00:46:02;10.98;;;9.98;;
55647;SDS011;45266;48.756;9.246;2022-07-25T00:47:04;10.10;;;9.20;;
55647;SDS011;45266;48.756;9.246;2022-07-25T00:48:06;10.60;;;9.70;;
55647;SDS011;45266;48.756;9.246;2022-07-25T00:49:08;10.85;;;9.85;;
55647;SDS011;45266;48.756;9.246;2022-07-25T00:50:10;10.43;;;9.38;;
55647;SDS011;45266;48.756;9.246;2022-07-25T00:51:12;11.48;;;10.48;;
55647;SDS011;45266;48.756;9.246;2022-07-25T00:52:15;10.48;;;9.52;;
55647;SDS011;45266;48.756;9.246;2022-07-25T00:53:17;11.10;;;10.10;;
55647;SDS011;45266;48.756;9.246;2022-07-25T00:54:19;11.10;;;10.10;;
55647;SDS011;45266;48.756;9.246;2022-07-25T00:55:22;9.73;;;8.85;;
55647;SDS011;45266;48.756;9.246;2022-07-25T00:56:25;10.57;;;9.63;;
55647;SDS011;45266;48.756;9.246;2022-07-25T00:57:27;11.05;;;10.05;;
55647;SDS011;45266;48.756;9.246;2022-07-25T00:58:29;11.05;;;10.02;;
55647;SDS011;45266;48.756;9.246;2022-07-25T00:59:31;10.40;;;9.40;;
55647;SDS011;45266;48.756;9.246;2022-07-25T01:00:33;11.45;;;9.82;;
55647;SDS011;45266;48.756;9.246;2022-07-25T01:01:35;10.88;;;9.77;;
55647;SDS011;45266;48.756;9.246;2022-07-25T01:02:40;11.50;;;10.23;;
55647;SDS011;45266;48.756;9.246;2022-07-25T01:03:42;10.32;;;9.32;;
55647;SDS011;45266;48.756;9.246;2022-07-25T01:04:44;10.35;;;9.40;;
55647;SDS011;45266;48.756;9.246;2022-07-25T01:05:46;10.57;;;9.57;;
55647;SDS011;45266;48.756;9.246;2022-07-25T01:06:54;10.52;;;9.48;;
55647;SDS011;45266;48.756;9.246;2022-07-25T01:07:55;10.43;;;9.52;;
55647;SDS011;45266;48.756;9.246;2022-07-25T01:08:58;11.05;;;9.95;;
55647;SDS011;45266;48.756;9.246;2022-07-25T01:10:01;10.00;;;9.10;;
55647;SDS011;45266;48.756;9.246;2022-07-25T01:11:04;10.88;;;9.88;;
55647;SDS011;45266;48.756;9.246;2022-07-25T01:12:06;11.10;;;10.00;;
55647;SDS011;45266;48.756;9.246;2022-07-25T01:13:08;10.38;;;9.40;;
55647;SDS011;45266;48.756;9.246;2022-07-25T01:14:10;11.05;;;9.98;;
55647;SDS011;45266;48.756;9.246;2022-07-25T01:15:12;10.63;;;9.63;;
55647;SDS011;45266;48.756;9.246;2022-07-25T01:16:13;10.23;;;9.32;;
55647;SDS011;45266;48.756;9.246;2022-07-25T01:17:16;10.55;;;9.55;;
55647;SDS011;45266;48.756;9.246;2022-07-25T01:18:17;11.02;;;9.98;;
55647;SDS011;45266;48.756;9.246;2022-07-25T01:19:19;10.70;;;9.77;;
55647;SDS011;45266;48.756;9.246;2022-07-25T01:20:24;10.82;;;9.88;;
55647;SDS011;45266;48.756;9.246;2022-07-25T01:21:28;10.98;;;9.98;;
55647;SDS011;45266;48.756;9.246;2022-07-25T01:22:30;10.77;;;9.73;;
55647;SDS011;45266;48.756;9.246;2022-07-25T01:23:32;11.63;;;9.07;;
55647;SDS011;45266;48.756;9.246;2022-07-25T01:24:34;10.70;;;9.73;;
55647;SDS011;45266;48.756;9.246;2022-07-25T01:25:36;11.57;;;10.32;;
55647;SDS011;45266;48.756;9.246;2022-07-25T01:26:38;10.55;;;9.55;;
55647;SDS011;45266;48.756;9.246;2022-07-25T01:27:40;10.40;;;9.50;;
55647;SDS011;45266;48.756;9.246;2022-07-25T01:28:44;9.95;;;9.07;;
55647;SDS011;45266;48.756;9.246;2022-07-25T01:29:45;10.73;;;9.80;;
55647;SDS011;45266;48.756;9.246;2022-07-25T01:30:47;10.05;;;9.00;;
55647;SDS011;45266;48.756;9.246;2022-07-25T01:31:49;10.75;;;9.75;;
55647;SDS011;45266;48.756;9.246;2022-07-25T01:32:51;11.07;;;9.90;;
55647;SDS011;45266;48.756;9.246;2022-07-25T01:33:53;10.30;;;9.40;;
55647;SDS011;45266;48.756;9.246;2022-07-25T01:34:55;10.63;;;9.27;;
55647;SDS011;45266;48.756;9.246;2022-07-25T01:35:57;11.55;;;10.30;;
55647;SDS011;45266;48.756;9.246;2022-07-25T01:36:59;11.02;;;10.02;;
55647;SDS011;45266;48.756;9.246;2022-07-25T01:38:01;10.82;;;9.73;;
55647;SDS011;45266;48.756;9.246;2022-07-25T01:39:02;10.43;;;9.52;;
55647;SDS011;45266;48.756;9.246;2022-07-25T01:40:04;10.57;;;9.57;;
55647;SDS011;45266;48.756;9.246;2022-07-25T01:41:07;10.82;;;9.82;;
55647;SDS011;45266;48.756;9.246;2022-07-25T01:42:09;10.25;;;9.25;;
55647;SDS011;45266;48.756;9.246;2022-07-25T01:43:11;10.73;;;9.60;;
55647;SDS011;45266;48.756;9.246;2022-07-25T01:44:14;10.30;;;9.32;;
55647;SDS011;45266;48.756;9.246;2022-07-25T01:45:17;10.63;;;9.52;;
55647;SDS011;45266;48.756;9.246;2022-07-25T01:46:19;10.48;;;9.52;;
55647;SDS011;45266;48.756;9.246;2022-07-25T01:47:21;11.07;;;10.07;;
55647;SDS011;45266;48.756;9.246;2022-07-25T01:48:23;10.65;;;9.57;;
55647;SDS011;45266;48.756;9.246;2022-07-25T01:49:25;10.45;;;9.55;;
55647;SDS011;45266;48.756;9.246;2022-07-25T01:50:27;10.88;;;9.75;;
55647;SDS011;45266;48.756;9.246;2022-07-25T01:51:29;10.82;;;9.75;;
55647;SDS011;45266;48.756;9.246;2022-07-25T01:52:31;11.32;;;9.93;;
55647;SDS011;45266;48.756;9.246;2022-07-25T01:53:32;11.55;;;10.10;;
55647;SDS011;45266;48.756;9.246;2022-07-25T01:54:36;10.98;;;9.95;;
55647;SDS011;45266;48.756;9.246;2022-07-25T01:55:38;10.60;;;9.52;;
55647;SDS011;45266;48.756;9.246;2022-07-25T01:56:43;10.88;;;9.88;;
55647;SDS011;45266;48.756;9.246;2022-07-25T01:57:48;10.85;;;9.85;;
55647;SDS011;45266;48.756;9.246;2022-07-25T01:58:50;10.70;;;9.70;;
55647;SDS011;45266;48.756;9.246;2022-07-25T01:59:52;10.63;;;9.65;;
55647;SDS011;45266;48.756;9.246;2022-07-25T02:00:54;10.35;;;9.35;;
55647;SDS011;45266;48.756;9.246;2022-07-25T02:01:56;11.13;;;10.13;;
55647;SDS011;45266;48.756;9.246;2022-07-25T02:02:58;10.77;;;9.88;;
55647;SDS011;45266;48.756;9.246;2022-07-25T02:04:18;10.65;;;9.75;;
55647;SDS011;45266;48.756;9.246;2022-07-25T02:05:20;10.70;;;9.80;;
55647;SDS011;45266;48.756;9.246;2022-07-25T02:06:22;11.02;;;10.02;;
55647;SDS011;45266;48.756;9.246;2022-07-25T02:07:24;10.40;;;9.45;;
55647;SDS011;45266;48.756;9.246;2022-07-25T02:08:26;10.75;;;9.82;;
55647;SDS011;45266;48.756;9.246;2022-07-25T02:09:28;10.68;;;9.68;;
55647;SDS011;45266;48.756;9.246;2022-07-25T02:10:30;10.25;;;9.27;;
55647;SDS011;45266;48.756;9.246;2022-07-25T02:11:32;10.73;;;9.73;;
55647;SDS011;45266;48.756;9.246;2022-07-25T02:12:35;9.73;;;8.82;;
55647;SDS011;45266;48.756;9.246;2022-07-25T02:13:37;10.57;;;9.57;;
55647;SDS011;45266;48.756;9.246;2022-07-25T02:14:39;10.02;;;9.13;;
55647;SDS011;45266;48.756;9.246;2022-07-25T02:15:41;10.35;;;9.43;;
55647;SDS011;45266;48.756;9.246;2022-07-25T02:16:43;10.50;;;9.50;;
55647;SDS011;45266;48.756;9.246;2022-07-25T02:17:45;10.98;;;9.98;;
55647;SDS011;45266;48.756;9.246;2022-07-25T02:18:47;11.43;;;9.32;;
55647;SDS011;45266;48.756;9.246;2022-07-25T02:19:48;10.25;;;9.35;;
55647;SDS011;45266;48.756;9.246;2022-07-25T02:20:50;10.05;;;9.15;;
55647;SDS011;45266;48.756;9.246;2022-07-25T02:21:52;10.63;;;9.63;;
55647;SDS011;45266;48.756;9.246;2022-07-25T02:22:54;10.75;;;9.43;;
55647;SDS011;45266;48.756;9.246;2022-07-25T02:23:56;10.70;;;9.70;;
55647;SDS011;45266;48.756;9.246;2022-07-25T02:24:59;10.45;;;9.48;;
55647;SDS011;45266;48.756;9.246;2022-07-25T02:26:02;10.60;;;9.60;;
55647;SDS011;45266;48.756;9.246;2022-07-25T02:27:04;10.15;;;9.25;;
55647;SDS011;45266;48.756;9.246;2022-07-25T02:28:06;11.13;;;10.07;;
55647;SDS011;45266;48.756;9.246;2022-07-25T02:29:10;10.38;;;9.38;;
55647;SDS011;45266;48.756;9.246;2022-07-25T02:30:14;9.68;;;8.77;;
55647;SDS011;45266;48.756;9.246;2022-07-25T02:31:15;10.18;;;9.27;;
55647;SDS011;45266;48.756;9.246;2022-07-25T02:32:17;10.60;;;9.48;;
55647;SDS011;45266;48.756;9.246;2022-07-25T02:33:19;10.32;;;9.32;;
55647;SDS011;45266;48.756;9.246;2022-07-25T02:34:21;10.52;;;9.63;;
55647;SDS011;45266;48.756;9.246;2022-07-25T02:35:23;11.23;;;10.23;;
55647;SDS011;45266;48.756;9.246;2022-07-25T02:36:25;10.90;;;9.98;;
55647;SDS011;45266;48.756;9.246;2022-07-25T02:37:26;10.80;;;9.80;;
55647;SDS011;45266;48.756;9.246;2022-07-25T02:38:28;10.73;;;9.65;;
55647;SDS011;45266;48.756;9.246;2022-07-25T02:39:30;10.32;;;9.43;;
55647;SDS011;45266;48.756;9.246;2022-07-25T02:40:32;10.07;;;9.27;;
55647;SDS011;45266;48.756;9.246;2022-07-25T02:41:34;10.68;;;9.75;;
55647;SDS011;45266;48.756;9.246;2022-07-25T02:42:36;10.93;;;9.93;;
55647;SDS011;45266;48.756;9.246;2022-07-25T02:43:37;10.60;;;9.63;;
55647;SDS011;45266;48.756;9.246;2022-07-25T02:44:39;10.77;;;9.77;;
55647;SDS011;45266;48.756;9.246;2022-07-25T02:45:41;11.60;;;10.40;;
55647;SDS011;45266;48.756;9.246;2022-07-25T02:46:43;11.27;;;10.27;;
55647;SDS011;45266;48.756;9.246;2022-07-25T02:47:47;10.95;;;9.95;;
55647;SDS011;45266;48.756;9.246;2022-07-25T02:48:48;10.88;;;9.88;;
55647;SDS011;45266;48.756;9.246;2022-07-25T02:49:50;10.82;;;9.75;;
55647;SDS011;45266;48.756;9.246;2022-07-25T02:50:52;11.20;;;10.20;;
55647;SDS011;45266;48.756;9.246;2022-07-25T02:51:54;10.93;;;9.93;;
55647;SDS011;45266;48.756;9.246;2022-07-25T02:52:57;10.65;;;9.43;;
55647;SDS011;45266;48.756;9.246;2022-07-25T02:53:59;10.63;;;9.73;;
55647;SDS011;45266;48.756;9.246;2022-07-25T02:55:01;11.63;;;10.60;;
55647;SDS011;45266;48.756;9.246;2022-07-25T02:56:09;10.55;;;9.65;;
55647;SDS011;45266;48.756;9.246;2022-07-25T02:57:14;10.68;;;9.55;;
55647;SDS011;45266;48.756;9.246;2022-07-25T02:58:16;10.60;;;9.60;;
55647;SDS011;45266;48.756;9.246;2022-07-25T02:59:18;10.77;;;9.77;;
55647;SDS011;45266;48.756;9.246;2022-07-25T03:00:20;10.00;;;9.10;;
55647;SDS011;45266;48.756;9.246;2022-07-25T03:01:22;11.18;;;10.13;;
55647;SDS011;45266;48.756;9.246;2022-07-25T03:02:25;11.13;;;10.13;;
55647;SDS011;45266;48.756;9.246;2022-07-25T03:03:27;11.07;;;10.13;;
55647;SDS011;45266;48.756;9.246;2022-07-25T03:04:29;11.00;;;10.00;;
55647;SDS011;45266;48.756;9.246;2022-07-25T03:05:31;10.95;;;9.85;;
55647;SDS011;45266;48.756;9.246;2022-07-25T03:06:33;11.38;;;10.25;;
55647;SDS011;45266;48.756;9.246;2022-07-25T03:07:35;10.93;;;9.95;;
55647;SDS011;45266;48.756;9.246;2022-07-25T03:08:37;11.48;;;10.38;;
55647;SDS011;45266;48.756;9.246;2022-07-25T03:09:39;11.45;;;10.45;;
55647;SDS011;45266;48.756;9.246;2022-07-25T03:10:41;10.55;;;9.55;;
55647;SDS011;45266;48.756;9.246;2022-07-25T03:11:43;10.38;;;9.38;;
55647;SDS011;45266;48.756;9.246;2022-07-25T03:12:45;10.95;;;9.85;;
55647;SDS011;45266;48.756;9.246;2022-07-25T03:13:46;11.18;;;10.18;;
55647;SDS011;45266;48.756;9.246;2022-07-25T03:14:49;11.02;;;9.93;;
55647;SDS011;45266;48.756;9.246;2022-07-25T03:15:51;11.32;;;10.23;;
55647;SDS011;45266;48.756;9.246;2022-07-25T03:16:53;11.10;;;10.10;;
55647;SDS011;45266;48.756;9.246;2022-07-25T03:17:54;10.73;;;9.82;;
55647;SDS011;45266;48.756;9.246;2022-07-25T03:18:56;11.63;;;10.63;;
55647;SDS011;45266;48.756;9.246;2022-07-25T03:19:58;11.57;;;10.43;;
55647;SDS011;45266;48.756;9.246;2022-07-25T03:21:00;11.48;;;10.48;;
55647;SDS011;45266;48.756;9.246;2022-07-25T03:22:02;10.90;;;9.90;;
55647;SDS011;45266;48.756;9.246;2022-07-25T03:23:04;11.43;;;10.32;;
55647;SDS011;45266;48.756;9.246;2022-07-25T03:24:06;11.00;;;9.90;;
55647;SDS011;45266;48.756;9.246;2022-07-25T03:25:08;11.38;;;10.18;;
55647;SDS011;45266;48.756;9.246;2022-07-25T03:26:22;10.85;;;9.75;;
55647;SDS011;45266;48.756;9.246;2022-07-25T03:27:25;11.60;;;10.55;;
55647;SDS011;45266;48.756;9.246;2022-07-25T03:28:27;10.88;;;9.95;;
55647;SDS011;45266;48.756;9.246;2022-07-25T03:29:29;10.75;;;9.75;;
55647;SDS011;45266;48.756;9.246;2022-07-25T03:30:30;11.25;;;10.15;;
55647;SDS011;45266;48.756;9.246;2022-07-25T03:31:32;11.80;;;10.23;;
55647;SDS011;45266;48.756;9.246;2022-07-25T03:32:34;11.13;;;10.10;;
55647;SDS011;45266;48.756;9.246;2022-07-25T03:33:36;11.75;;;10.38;;
55647;SDS011;45266;48.756;9.246;2022-07-25T03:34:38;11.77;;;10.65;;
55647;SDS011;45266;48.756;9.246;2022-07-25T03:35:40;11.52;;;10.52;;
55647;SDS011;45266;48.756;9.246;2022-07-25T03:36:43;11.38;;;10.15;;
55647;SDS011;45266;48.756;9.246;2022-07-25T03:37:44;11.40;;;10.30;;
55647;SDS011;45266;48.756;9.246;2022-07-25T03:38:47;10.63;;;9.63;;
55647;SDS011;45266;48.756;9.246;2022-07-25T03:39:49;11.50;;;10.35;;
55647;SDS011;45266;48.756;9.246;2022-07-25T03:40:51;11.63;;;10.50;;
55647;SDS011;45266;48.756;9.246;2022-07-25T03:41:53;11.85;;;10.75;;
55647;SDS011;45266;48.756;9.246;2022-07-25T03:42:56;11.57;;;10.50;;
55647;SDS011;45266;48.756;9.246;2022-07-25T03:43:58;11.60;;;10.60;;
55647;SDS011;45266;48.756;9.246;2022-07-25T03:45:00;11.35;;;10.15;;
55647;SDS011;45266;48.756;9.246;2022-07-25T03:46:14;11.52;;;10.43;;
55647;SDS011;45266;48.756;9.246;2022-07-25T03:47:16;10.88;;;9.88;;
55647;SDS011;45266;48.756;9.246;2022-07-25T03:48:21;11.52;;;10.48;;
55647;SDS011;45266;48.756;9.246;2022-07-25T03:49:22;11.48;;;10.38;;
55647;SDS011;45266;48.756;9.246;2022-07-25T03:50:24;11.77;;;10.65;;
55647;SDS011;45266;48.756;9.246;2022-07-25T03:51:26;11.43;;;10.43;;
55647;SDS011;45266;48.756;9.246;2022-07-25T03:52:28;11.23;;;10.20;;
55647;SDS011;45266;48.756;9.246;2022-07-25T03:53:30;11.23;;;10.13;;
55647;SDS011;45266;48.756;9.246;2022-07-25T03:54:31;10.85;;;9.85;;
55647;SDS011;45266;48.756;9.246;2022-07-25T03:55:33;10.73;;;9.73;;
55647;SDS011;45266;48.756;9.246;2022-07-25T03:56:42;11.90;;;10.07;;
55647;SDS011;45266;48.756;9.246;2022-07-25T03:57:47;10.98;;;9.98;;
55647;SDS011;45266;48.756;9.246;2022-07-25T03:58:49;10.85;;;9.80;;
55647;SDS011;45266;48.756;9.246;2022-07-25T03:59:51;11.95;;;10.82;;
55647;SDS011;45266;48.756;9.246;2022-07-25T04:00:52;11.60;;;10.40;;
55647;SDS011;45266;48.756;9.246;2022-07-25T04:01:54;11.77;;;10.68;;
55647;SDS011;45266;48.756;9.246;2022-07-25T04:02:56;11.70;;;10.60;;
55647;SDS011;45266;48.756;9.246;2022-07-25T04:03:58;11.30;;;10.30;;
55647;SDS011;45266;48.756;9.246;2022-07-25T04:05:00;12.02;;;10.93;;
55647;SDS011;45266;48.756;9.246;2022-07-25T04:06:02;11.50;;;10.35;;
55647;SDS011;45266;48.756;9.246;2022-07-25T04:07:04;11.25;;;10.15;;
55647;SDS011;45266;48.756;9.246;2022-07-25T04:08:06;11.70;;;10.50;;
55647;SDS011;45266;48.756;9.246;2022-07-25T04:09:08;12.43;;;10.45;;
55647;SDS011;45266;48.756;9.246;2022-07-25T04:10:11;11.05;;;9.95;;
55647;SDS011;45266;48.756;9.246;2022-07-25T04:11:13;12.07;;;10.82;;
55647;SDS011;45266;48.756;9.246;2022-07-25T04:12:15;11.65;;;10.48;;
55647;SDS011;45266;48.756;9.246;2022-07-25T04:13:16;11.85;;;10.68;;
55647;SDS011;45266;48.756;9.246;2022-07-25T04:14:18;12.30;;;11.10;;
55647;SDS011;45266;48.756;9.246;2022-07-25T04:15:20;12.20;;;10.95;;
55647;SDS011;45266;48.756;9.246;2022-07-25T04:16:22;12.05;;;10.75;;
55647;SDS011;45266;48.756;9.246;2022-07-25T04:17:28;12.60;;;11.45;;
55647;SDS011;45266;48.756;9.246;2022-07-25T04:18:30;11.63;;;10.52;;
55647;SDS011;45266;48.756;9.246;2022-07-25T04:19:34;12.45;;;10.63;;
55647;SDS011;45266;48.756;9.246;2022-07-25T04:20:36;11.93;;;10.82;;
55647;SDS011;45266;48.756;9.246;2022-07-25T04:21:38;11.73;;;10.60;;
55647;SDS011;45266;48.756;9.246;2022-07-25T04:22:40;10.95;;;9.95;;
55647;SDS011;45266;48.756;9.246;2022-07-25T04:23:47;12.23;;;11.07;;
55647;SDS011;45266;48.756;9.246;2022-07-25T04:24:49;11.57;;;10.38;;
55647;SDS011;45266;48.756;9.246;2022-07-25T04:25:51;11.68;;;10.57;;
55647;SDS011;45266;48.756;9.246;2022-07-25T04:26:53;12.15;;;10.95;;
55647;SDS011;45266;48.756;9.246;2022-07-25T04:27:55;11.60;;;10.50;;
55647;SDS011;45266;48.756;9.246;2022-07-25T04:28:56;12.13;;;10.75;;
55647;SDS011;45266;48.756;9.246;2022-07-25T04:29:58;12.15;;;10.95;;
55647;SDS011;45266;48.756;9.246;2022-07-25T04:31:00;12.32;;;11.15;;
55647;SDS011;45266;48.756;9.246;2022-07-25T04:32:02;12.55;;;11.35;;
55647;SDS011;45266;48.756;9.246;2022-07-25T04:33:05;12.05;;;10.85;;
55647;SDS011;45266;48.756;9.246;2022-07-25T04:34:06;11.52;;;10.32;;
55647;SDS011;45266;48.756;9.246;2022-07-25T04:35:09;11.50;;;10.40;;
55647;SDS011;45266;48.756;9.246;2022-07-25T04:36:11;12.00;;;10.90;;
55647;SDS011;45266;48.756;9.246;2022-07-25T04:37:13;11.95;;;10.77;;
55647;SDS011;45266;48.756;9.246;2022-07-25T04:38:14;10.75;;;9.75;;
55647;SDS011;45266;48.756;9.246;2022-07-25T04:39:17;11.60;;;10.60;;
55647;SDS011;45266;48.756;9.246;2022-07-25T04:40:18;12.10;;;11.00;;
55647;SDS011;45266;48.756;9.246;2022-07-25T04:41:20;11.75;;;10.60;;
55647;SDS011;45266;48.756;9.246;2022-07-25T04:42:22;11.85;;;10.73;;
55647;SDS011;45266;48.756;9.246;2022-07-25T04:43:24;11.23;;;10.13;;
55647;SDS011;45266;48.756;9.246;2022-07-25T04:44:26;11.38;;;10.25;;
55647;SDS011;45266;48.756;9.246;2022-07-25T04:45:28;12.02;;;10.85;;
55647;SDS011;45266;48.756;9.246;2022-07-25T04:46:30;12.02;;;9.93;;
55647;SDS011;45266;48.756;9.246;2022-07-25T04:47:32;11.52;;;10.00;;
55647;SDS011;45266;48.756;9.246;2022-07-25T04:48:34;11.65;;;10.45;;
55647;SDS011;45266;48.756;9.246;2022-07-25T04:49:36;12.43;;;11.13;;
55647;SDS011;45266;48.756;9.246;2022-07-25T04:50:38;11.20;;;10.15;;
55647;SDS011;45266;48.756;9.246;2022-07-25T04:51:40;11.52;;;10.43;;
55647;SDS011;45266;48.756;9.246;2022-07-25T04:52:42;12.38;;;11.07;;
55647;SDS011;45266;48.756;9.246;2022-07-25T04:53:44;11.80;;;10.65;;
55647;SDS011;45266;48.756;9.246;2022-07-25T04:54:46;12.48;;;10.43;;
55647;SDS011;45266;48.756;9.246;2022-07-25T04:55:48;11.73;;;10.57;;
55647;SDS011;45266;48.756;9.246;2022-07-25T04:56:50;12.45;;;11.35;;
55647;SDS011;45266;48.756;9.246;2022-07-25T04:57:52;11.65;;;10.45;;
55647;SDS011;45266;48.756;9.246;2022-07-25T04:58:53;11.93;;;10.40;;
55647;SDS011;45266;48.756;9.246;2022-07-25T04:59:56;11.25;;;10.23;;
55647;SDS011;45266;48.756;9.246;2022-07-25T05:00:59;11.07;;;9.98;;
55647;SDS011;45266;48.756;9.246;2022-07-25T05:02:01;14.73;;;11.30;;
55647;SDS011;45266;48.756;9.246;2022-07-25T05:03:03;11.30;;;10.20;;
55647;SDS011;45266;48.756;9.246;2022-07-25T05:04:04;11.73;;;10.63;;
55647;SDS011;45266;48.756;9.246;2022-07-25T05:05:07;11.60;;;10.40;;
55647;SDS011;45266;48.756;9.246;2022-07-25T05:06:22;12.65;;;11.15;;
55647;SDS011;45266;48.756;9.246;2022-07-25T05:07:24;11.52;;;10.43;;
55647;SDS011;45266;48.756;9.246;2022-07-25T05:08:27;11.95;;;10.75;;
55647;SDS011;45266;48.756;9.246;2022-07-25T05:09:29;14.75;;;10.73;;
55647;SDS011;45266;48.756;9.246;2022-07-25T05:10:32;11.10;;;10.02;;
55647;SDS011;45266;48.756;9.246;2022-07-25T05:11:34;11.52;;;10.32;;
55647;SDS011;45266;48.756;9.246;2022-07-25T05:12:35;12.32;;;10.55;;
55647;SDS011;45266;48.756;9.246;2022-07-25T05:13:38;10.57;;;9.65;;
55647;SDS011;45266;48.756;9.246;2022-07-25T05:14:39;11.40;;;10.30;;
55647;SDS011;45266;48.756;9.246;2022-07-25T05:15:41;11.70;;;10.50;;
55647;SDS011;45266;48.756;9.246;2022-07-25T05:16:43;12.40;;;10.85;;
55647;SDS011;45266;48.756;9.246;2022-07-25T05:17:45;11.32;;;10.10;;
55647;SDS011;45266;48.756;9.246;2022-07-25T05:18:48;11.55;;;10.45;;
55647;SDS011;45266;48.756;9.246;2022-07-25T05:19:50;11.40;;;10.30;;
55647;SDS011;45266;48.756;9.246;2022-07-25T05:20:51;11.13;;;10.02;;
55647;SDS011;45266;48.756;9.246;2022-07-25T05:21:53;11.95;;;10.75;;
55647;SDS011;45266;48.756;9.246;2022-07-25T05:22:55;11.35;;;10.13;;
55647;SDS011;45266;48.756;9.246;2022-07-25T05:23:57;11.05;;;9.95;;
55647;SDS011;45266;48.756;9.246;2022-07-25T05:24:59;11.80;;;10.60;;
55647;SDS011;45266;48.756;9.246;2022-07-25T05:26:05;14.27;;;12.93;;
55647;SDS011;45266;48.756;9.246;2022-07-25T05:27:07;12.35;;;11.15;;
55647;SDS011;45266;48.756;9.246;2022-07-25T05:28:08;11.13;;;10.13;;
55647;SDS011;45266;48.756;9.246;2022-07-25T05:29:10;11.82;;;10.70;;
55647;SDS011;45266;48.756;9.246;2022-07-25T05:30:15;10.50;;;9.50;;
55647;SDS011;45266;48.756;9.246;2022-07-25T05:31:16;12.07;;;10.90;;
55647;SDS011;45266;48.756;9.246;2022-07-25T05:32:26;12.00;;;10.88;;
55647;SDS011;45266;48.756;9.246;2022-07-25T05:33:28;13.18;;;11.88;;
55647;SDS011;45266;48.756;9.246;2022-07-25T05:34:30;15.60;;;11.85;;
55647;SDS011;45266;48.756;9.246;2022-07-25T05:35:31;13.70;;;12.40;;
55647;SDS011;45266;48.756;9.246;2022-07-25T05:36:33;12.00;;;10.88;;
55647;SDS011;45266;48.756;9.246;2022-07-25T05:37:38;12.82;;;11.52;;
55647;SDS011;45266;48.756;9.246;2022-07-25T05:38:42;13.00;;;11.65;;
55647;SDS011;45266;48.756;9.246;2022-07-25T05:39:44;14.23;;;12.35;;
55647;SDS011;45266;48.756;9.246;2022-07-25T05:40:46;14.48;;;12.07;;
55647;SDS011;45266;48.756;9.246;2022-07-25T05:41:51;13.50;;;12.20;;
55647;SDS011;45266;48.756;9.246;2022-07-25T05:42:56;13.25;;;11.88;;
55647;SDS011;45266;48.756;9.246;2022-07-25T05:44:03;13.00;;;11.68;;
55647;SDS011;45266;48.756;9.246;2022-07-25T05:45:06;12.20;;;10.95;;
55647;SDS011;45266;48.756;9.246;2022-07-25T05:46:08;13.05;;;11.50;;
55647;SDS011;45266;48.756;9.246;2022-07-25T05:47:13;13.05;;;11.18;;
55647;SDS011;45266;48.756;9.246;2022-07-25T05:48:16;13.10;;;11.80;;
55647;SDS011;45266;48.756;9.246;2022-07-25T05:49:20;13.18;;;11.90;;
55647;SDS011;45266;48.756;9.246;2022-07-25T05:50:22;12.27;;;10.98;;
55647;SDS011;45266;48.756;9.246;2022-07-25T05:51:24;13.15;;;11.73;;
55647;SDS011;45266;48.756;9.246;2022-07-25T05:52:29;16.33;;;11.68;;
55647;SDS011;45266;48.756;9.246;2022-07-25T05:53:34;13.15;;;11.75;;
55647;SDS011;45266;48.756;9.246;2022-07-25T05:54:36;12.35;;;11.15;;
55647;SDS011;45266;48.756;9.246;2022-07-25T05:55:38;13.88;;;12.25;;
55647;SDS011;45266;48.756;9.246;2022-07-25T05:56:41;12.90;;;11.30;;
55647;SDS011;45266;48.756;9.246;2022-07-25T05:57:43;12.52;;;11.35;;
55647;SDS011;45266;48.756;9.246;2022-07-25T05:58:48;11.68;;;10.57;;
55647;SDS011;45266;48.756;9.246;2022-07-25T05:59:53;14.00;;;11.85;;
55647;SDS011;45266;48.756;9.246;2022-07-25T06:00:56;12.73;;;11.40;;
55647;SDS011;45266;48.756;9.246;2022-07-25T06:01:59;12.60;;;11.30;;
55647;SDS011;45266;48.756;9.246;2022-07-25T06:03:02;13.98;;;11.55;;
55647;SDS011;45266;48.756;9.246;2022-07-25T06:04:05;15.25;;;11.40;;
55647;SDS011;45266;48.756;9.246;2022-07-25T06:05:07;12.20;;;10.90;;
55647;SDS011;45266;48.756;9.246;2022-07-25T06:06:10;13.52;;;12.18;;
55647;SDS011;45266;48.756;9.246;2022-07-25T06:07:12;13.18;;;11.88;;
55647;SDS011;45266;48.756;9.246;2022-07-25T06:08:17;12.32;;;11.13;;